createdAt,value
2023-01-13T00:06:21.647Z,100047.41
2023-01-13T00:16:24.088Z,100032.69
2023-01-13T00:26:30.660Z,100016.97
2023-01-13T00:36:33.721Z,99997.97
2023-01-13T00:46:36.355Z,99983.13
2023-01-13T00:56:40.813Z,100000.25
2023-01-13T01:06:43.766Z,99991.41
2023-01-13T01:16:46.167Z,100005.97
2023-01-13T01:26:48.514Z,100007.56
2023-01-13T01:36:51.131Z,99986.78
2023-01-13T01:46:55.286Z,99952.97
2023-01-13T01:56:58.154Z,99947.47
2023-01-13T02:07:04.360Z,99937.88
2023-01-13T02:17:21.674Z,99942.81
2023-01-13T02:27:46.741Z,99927.56
2023-01-13T02:37:50.844Z,99928.00
2023-01-13T02:47:56.169Z,99918.75
2023-01-13T02:58:01.859Z,99875.34
2023-01-13T03:08:04.949Z,99886.13
2023-01-13T03:18:17.234Z,99889.19
2023-01-13T03:28:28.270Z,99894.84
2023-01-13T03:38:38.611Z,99900.63
2023-01-13T03:48:45.827Z,99902.72
2023-01-13T03:58:52.970Z,99915.28
2023-01-13T04:09:11.894Z,99913.03
2023-01-13T04:19:14.549Z,99907.06
2023-01-13T04:29:17.355Z,99905.53
2023-01-13T04:39:19.772Z,99906.69
2023-01-13T04:49:22.193Z,99902.47
2023-01-13T04:59:25.559Z,99897.22
2023-01-13T05:09:28.179Z,99890.34
2023-01-13T05:19:33.830Z,99891.72
2023-01-13T05:29:36.247Z,99885.09
2023-01-13T05:39:58.683Z,99873.84
2023-01-13T05:50:01.312Z,99861.31
2023-01-13T06:00:05.331Z,99860.16
2023-01-13T06:10:14.608Z,99881.72
2023-01-13T06:20:17.851Z,99846.78
2023-01-13T06:30:23.201Z,99831.28
2023-01-13T06:41:46.765Z,99828.16
2023-01-13T06:51:59.967Z,99823.38
2023-01-13T07:02:10.783Z,99846.38
2023-01-13T07:12:17.104Z,99872.53
2023-01-13T07:22:19.855Z,99850.25
2023-01-13T07:32:22.948Z,99859.50
2023-01-13T07:42:45.122Z,99870.88
2023-01-13T07:52:51.427Z,99868.13
2023-01-13T08:02:55.008Z,99867.13
2023-01-13T08:13:21.158Z,99859.00
2023-01-13T08:23:23.796Z,99867.72
2023-01-13T08:33:26.423Z,99886.78
2023-01-13T08:43:29.075Z,99945.22
2023-01-13T08:53:32.131Z,99931.34
2023-01-13T09:03:34.740Z,99949.63
2023-01-13T09:13:37.188Z,99926.59
2023-01-13T09:23:39.762Z,99922.03
2023-01-13T09:34:00.940Z,99908.38
2023-01-13T09:44:07.389Z,99870.66
2023-01-13T09:54:25.969Z,99852.25
2023-01-13T10:04:28.603Z,99830.44
2023-01-13T10:27:20.251Z,99836.03
2023-01-13T10:37:28.448Z,99819.63
2023-01-13T10:47:35.796Z,99809.97
2023-01-13T10:57:39.238Z,99784.66
2023-01-13T11:07:50.483Z,99778.25
2023-01-13T11:18:05.123Z,99784.78
2023-01-13T11:28:36.640Z,99773.50
2023-01-13T11:38:52.768Z,99758.16
2023-01-13T11:48:56.639Z,99756.84
2023-01-13T11:59:44.335Z,99735.34
2023-01-13T12:10:14.770Z,99731.97
2023-01-13T12:20:29.612Z,99713.41
2023-01-13T12:30:55.199Z,99703.88
2023-01-13T12:41:19.169Z,99701.88
2023-01-13T12:51:22.833Z,99685.81
2023-01-13T13:01:36.733Z,99693.66
2023-01-13T13:12:03.078Z,99689.44
2023-01-13T13:22:12.027Z,99683.28
2023-01-13T13:32:33.449Z,99682.81
2023-01-13T13:43:13.445Z,99661.75
2023-01-13T13:53:19.776Z,99696.19
2023-01-13T14:03:34.414Z,99715.16
2023-01-13T14:13:36.975Z,99705.16
2023-01-13T14:23:39.492Z,99706.94
2023-01-13T14:33:48.131Z,99696.47
2023-01-13T14:43:54.437Z,99708.34
2023-01-13T14:53:58.539Z,99723.66
2023-01-13T15:04:38.249Z,99723.28
2023-01-13T15:14:40.810Z,99730.56
2023-01-13T15:24:43.250Z,99727.97
2023-01-13T15:34:47.857Z,99744.63
2023-01-13T15:45:09.300Z,99749.00
2023-01-13T15:55:11.876Z,99757.94
2023-01-13T16:05:14.541Z,99767.59
2023-01-13T16:15:18.357Z,99780.69
2023-01-13T16:25:25.289Z,99781.69
2023-01-13T16:35:29.089Z,99780.84
2023-01-13T16:45:32.824Z,99782.81
2023-01-13T16:55:36.888Z,99776.88
2023-01-13T17:05:44.178Z,99784.16
2023-01-13T17:15:46.729Z,99787.03
2023-01-13T17:25:49.342Z,99799.56
2023-01-13T17:35:51.909Z,99788.94
2023-01-13T17:45:54.550Z,99742.59
2023-01-13T17:55:57.736Z,99824.00
2023-01-13T18:06:08.600Z,99889.78
2023-01-13T18:16:13.923Z,99895.31
2023-01-13T18:26:36.991Z,99912.03
2023-01-13T18:36:39.616Z,99873.78
2023-01-13T18:46:42.577Z,99892.97
2023-01-13T18:56:45.491Z,99919.28
2023-01-13T19:06:51.589Z,99902.78
2023-01-13T19:16:54.395Z,99912.47
2023-01-13T19:26:57.024Z,99953.84
2023-01-13T19:36:59.619Z,99976.41
2023-01-13T19:47:03.874Z,99967.97
2023-01-13T19:57:07.066Z,99965.34
2023-01-13T20:07:13.538Z,99992.69
2023-01-13T20:17:18.584Z,100047.88
2023-01-13T20:27:23.867Z,100016.47
2023-01-13T20:37:27.005Z,100102.47
2023-01-13T20:47:30.747Z,100100.59
2023-01-13T20:57:33.374Z,100071.75
2023-01-13T21:07:37.950Z,100065.97
2023-01-13T21:18:00.708Z,100073.50
2023-01-13T21:28:06.758Z,100102.38
2023-01-13T21:38:11.449Z,100106.06
2023-01-13T21:48:14.268Z,100116.84
2023-01-13T21:58:17.147Z,100115.31
2023-01-13T22:08:19.761Z,100105.97
2023-01-13T22:18:22.300Z,100104.56
2023-01-13T22:28:34.052Z,100108.38
2023-01-13T22:38:36.952Z,100111.00
2023-01-13T22:48:40.579Z,100131.06
2023-01-13T22:58:43.771Z,100132.09
2023-01-13T23:08:47.058Z,100125.50
2023-01-13T23:18:49.664Z,100118.66
2023-01-13T23:28:52.223Z,100125.84
2023-01-13T23:38:55.518Z,100118.16
2023-01-13T23:48:58.327Z,100129.56
2023-01-13T23:59:00.828Z,100140.28
